Time;durP1;ratioP1;P1;durP2;ratioP2;P2;SDS_P1;SDS_P2;PMS_P1;PMS_P2;Temp;Humidity;BMP_temperature;BMP_pressure;BME280_temperature;BME280_humidity;BME280_pressure;Samples;Min_cycle;Max_cycle;Signal;HPM_P1;HPM_P2
2023/06/10 00:02:05;;;;;;;14.20;9.65;;;16.10;99.90;;;;;;5073676;28;20083;-38
2023/06/10 00:04:31;;;;;;;14.15;9.73;;;16.10;99.90;;;;;;5073435;28;20040;-38
2023/06/10 00:06:57;;;;;;;13.35;7.82;;;16.00;99.90;;;;;;5064541;28;20039;-39
2023/06/10 00:09:22;;;;;;;16.83;9.48;;;16.00;99.90;;;;;;5068633;28;20036;-38
2023/06/10 00:11:48;;;;;;;13.30;8.55;;;16.00;99.90;;;;;;5062179;28;20051;-39
2023/06/10 00:14:14;;;;;;;11.18;9.20;;;16.00;99.90;;;;;;5074301;28;20379;-40
2023/06/10 00:16:40;;;;;;;13.25;9.02;;;16.00;99.90;;;;;;5073962;28;20059;-39
2023/06/10 00:19:06;;;;;;;14.63;8.70;;;16.00;99.90;;;;;;5069705;28;20810;-38
2023/06/10 00:21:40;;;;;;;12.63;9.50;;;15.90;99.90;;;;;;5072369;28;20055;-39
2023/06/10 00:24:07;;;;;;;11.70;8.27;;;15.90;99.90;;;;;;5071547;28;20454;-38
2023/06/10 00:26:35;;;;;;;17.15;9.73;;;15.90;99.90;;;;;;5074031;28;20043;-38
2023/06/10 00:29:01;;;;;;;13.75;8.43;;;15.90;99.90;;;;;;5071997;28;20607;-38
2023/06/10 00:31:26;;;;;;;15.48;8.50;;;15.90;99.90;;;;;;5072903;28;20074;-41
2023/06/10 00:33:52;;;;;;;110.70;14.18;;;15.90;99.90;;;;;;5073603;28;20407;-38
2023/06/10 00:36:19;;;;;;;14.77;9.43;;;15.90;99.90;;;;;;5071879;28;20047;-38
2023/06/10 00:38:44;;;;;;;14.43;8.30;;;15.90;99.90;;;;;;5062822;28;20150;-39
2023/06/10 00:41:10;;;;;;;12.25;8.60;;;15.90;99.90;;;;;;5069798;28;20132;-40
2023/06/10 00:43:36;;;;;;;12.75;7.90;;;15.80;99.90;;;;;;5073677;28;20040;-38
2023/06/10 00:46:02;;;;;;;13.02;8.20;;;15.80;99.90;;;;;;5074223;28;20391;-38
2023/06/10 00:48:28;;;;;;;17.20;8.88;;;15.80;99.90;;;;;;5072901;28;20411;-40
2023/06/10 00:50:54;;;;;;;14.13;9.05;;;15.80;99.90;;;;;;5066393;28;20040;-38
2023/06/10 00:53:21;;;;;;;9.98;7.93;;;15.70;99.90;;;;;;5073856;28;20492;-38
2023/06/10 00:55:47;;;;;;;13.93;8.60;;;15.70;99.90;;;;;;5074083;28;20405;-38
2023/06/10 00:58:13;;;;;;;10.50;8.65;;;15.70;99.90;;;;;;5071832;28;20133;-38
2023/06/10 01:00:38;;;;;;;11.13;8.23;;;15.70;99.90;;;;;;5074427;28;20456;-39
2023/06/10 01:03:08;;;;;;;11.85;8.80;;;15.60;99.90;;;;;;5076905;28;20070;-38
2023/06/10 01:05:38;;;;;;;11.90;8.50;;;15.70;99.90;;;;;;5076090;28;20497;-38
2023/06/10 01:08:28;;;;;;;12.85;8.30;;;15.60;99.90;;;;;;5076042;28;20052;-39
2023/06/10 01:10:59;;;;;;;11.27;7.85;;;15.60;99.90;;;;;;5076354;28;20098;-38
2023/06/10 01:13:28;;;;;;;10.55;9.00;;;15.60;99.90;;;;;;5077027;28;20051;-38
2023/06/10 01:15:56;;;;;;;13.05;9.15;;;15.60;99.90;;;;;;5058016;28;20099;-39
2023/06/10 01:18:22;;;;;;;11.68;9.02;;;15.60;99.90;;;;;;5075728;28;20471;-39
2023/06/10 01:20:48;;;;;;;10.65;8.88;;;15.50;99.90;;;;;;5075763;28;20040;-40
2023/06/10 01:23:15;;;;;;;11.13;8.02;;;15.50;99.90;;;;;;5076993;28;20314;-39
2023/06/10 01:25:57;;;;;;;16.02;9.60;;;15.50;99.90;;;;;;5075505;28;20052;-39
2023/06/10 01:28:53;;;;;;;11.02;8.80;;;15.50;99.90;;;;;;5074502;28;20508;-39
2023/06/10 01:31:38;;;;;;;12.20;9.40;;;15.40;99.90;;;;;;5073890;28;20356;-40
2023/06/10 01:34:09;;;;;;;16.15;8.93;;;15.40;99.90;;;;;;5074698;28;20427;-39
2023/06/10 01:36:37;;;;;;;13.30;8.50;;;15.40;99.90;;;;;;5075415;28;20526;-38
2023/06/10 01:39:05;;;;;;;11.23;8.32;;;15.30;99.90;;;;;;5067921;28;20047;-40
2023/06/10 01:41:31;;;;;;;11.20;8.45;;;15.30;99.90;;;;;;5078175;28;20345;-39
2023/06/10 01:43:57;;;;;;;12.35;9.25;;;15.30;99.90;;;;;;5068125;28;20131;-39
2023/06/10 01:46:23;;;;;;;13.75;8.52;;;15.30;99.90;;;;;;5075975;28;20040;-40
2023/06/10 01:48:48;;;;;;;13.88;9.13;;;15.20;99.90;;;;;;5075456;28;20480;-39
2023/06/10 01:51:14;;;;;;;13.30;9.18;;;15.20;99.90;;;;;;5069204;28;20040;-39
2023/06/10 01:53:40;;;;;;;12.13;8.73;;;15.20;99.90;;;;;;5074814;28;20060;-39
2023/06/10 01:56:06;;;;;;;10.75;7.90;;;15.20;99.90;;;;;;5075751;28;20048;-39
2023/06/10 01:58:31;;;;;;;11.32;8.35;;;15.10;99.90;;;;;;5074681;28;20384;-39
2023/06/10 02:00:58;;;;;;;12.50;8.88;;;15.10;99.90;;;;;;5075152;28;20055;-39
2023/06/10 02:03:24;;;;;;;16.30;9.30;;;15.10;99.90;;;;;;5075897;28;20388;-39
2023/06/10 02:05:49;;;;;;;11.40;8.05;;;15.10;99.90;;;;;;5075856;28;20048;-40
2023/06/10 02:08:15;;;;;;;12.63;9.07;;;15.10;99.90;;;;;;5075878;28;20040;-39
2023/06/10 02:10:41;;;;;;;13.00;8.90;;;15.10;99.90;;;;;;5076030;28;20044;-38
2023/06/10 02:13:07;;;;;;;12.73;8.60;;;15.00;99.90;;;;;;5074349;28;20547;-39
2023/06/10 02:15:33;;;;;;;12.27;8.55;;;15.00;99.90;;;;;;5076000;28;20590;-39
2023/06/10 02:18:00;;;;;;;12.00;8.77;;;15.00;99.90;;;;;;5075165;28;20032;-38
2023/06/10 02:20:26;;;;;;;13.63;8.85;;;15.00;99.90;;;;;;5074260;28;20491;-39
2023/06/10 02:22:52;;;;;;;12.60;8.40;;;15.00;99.90;;;;;;5075352;28;20044;-39
2023/06/10 02:25:18;;;;;;;12.15;8.57;;;14.90;99.90;;;;;;5076392;28;20082;-39
2023/06/10 02:27:44;;;;;;;16.05;9.25;;;14.90;99.90;;;;;;5076267;28;20426;-40
2023/06/10 02:30:10;;;;;;;13.32;9.15;;;14.80;99.90;;;;;;5076577;28;20970;-39
2023/06/10 02:32:36;;;;;;;13.63;9.02;;;14.80;99.90;;;;;;5074928;28;20040;-38
2023/06/10 02:35:02;;;;;;;13.40;8.68;;;14.70;99.90;;;;;;5075306;28;20048;-39
2023/06/10 02:37:28;;;;;;;12.98;8.68;;;14.60;99.90;;;;;;5074456;28;20048;-39
2023/06/10 02:39:53;;;;;;;11.65;8.70;;;14.60;99.90;;;;;;5067779;28;20062;-39
2023/06/10 02:42:19;;;;;;;11.27;8.52;;;14.60;99.90;;;;;;5073535;28;20066;-38
2023/06/10 02:44:45;;;;;;;15.27;8.90;;;14.60;99.90;;;;;;5069038;28;20048;-39
2023/06/10 02:47:10;;;;;;;13.95;9.98;;;14.50;99.90;;;;;;5075146;28;20051;-39
2023/06/10 02:49:36;;;;;;;14.55;8.35;;;14.50;99.90;;;;;;5068684;28;20044;-38
2023/06/10 02:52:06;;;;;;;13.35;8.90;;;14.50;99.90;;;;;;5074646;28;20047;-39
2023/06/10 02:54:32;;;;;;;10.50;8.32;;;14.50;99.90;;;;;;5074287;28;20040;-38
2023/06/10 02:56:58;;;;;;;10.88;8.95;;;14.50;99.90;;;;;;5074615;28;20032;-39
2023/06/10 02:59:23;;;;;;;13.30;8.50;;;14.40;99.90;;;;;;5075516;28;20331;-38
2023/06/10 03:01:50;;;;;;;14.75;8.85;;;14.40;99.90;;;;;;5074710;28;20040;-38
2023/06/10 03:04:16;;;;;;;11.35;8.73;;;14.30;99.90;;;;;;5075013;28;20081;-39
2023/06/10 03:06:42;;;;;;;11.27;7.50;;;14.30;99.90;;;;;;5075009;28;20044;-39
2023/06/10 03:09:07;;;;;;;14.40;8.60;;;14.30;99.90;;;;;;5072556;28;20478;-39
2023/06/10 03:11:33;;;;;;;14.43;9.75;;;14.30;99.90;;;;;;5074847;28;20474;-39
2023/06/10 03:13:59;;;;;;;15.63;9.13;;;14.30;99.90;;;;;;5075057;28;20105;-39
2023/06/10 03:16:27;;;;;;;12.95;8.07;;;14.20;99.90;;;;;;5075244;28;20444;-40
2023/06/10 03:18:53;;;;;;;14.13;8.90;;;14.20;99.90;;;;;;5074074;28;20040;-38
2023/06/10 03:21:20;;;;;;;16.77;8.48;;;14.20;99.90;;;;;;5074171;28;20544;-38
2023/06/10 03:23:46;;;;;;;11.90;8.68;;;14.20;99.90;;;;;;5073521;28;20180;-40
2023/06/10 03:26:14;;;;;;;12.63;8.50;;;14.10;99.90;;;;;;5075765;28;20044;-39
2023/06/10 03:28:40;;;;;;;13.05;8.00;;;14.10;99.90;;;;;;5074550;28;20091;-39
2023/06/10 03:31:06;;;;;;;13.55;7.50;;;14.00;99.90;;;;;;5074367;28;20849;-39
2023/06/10 03:33:32;;;;;;;10.90;7.72;;;14.10;99.90;;;;;;5074729;28;20100;-39
2023/06/10 03:35:58;;;;;;;11.10;8.15;;;14.10;99.90;;;;;;5074613;28;20119;-39
2023/06/10 03:38:24;;;;;;;10.13;7.88;;;14.10;99.90;;;;;;5072005;28;20379;-39
2023/06/10 03:40:50;;;;;;;12.75;7.55;;;14.10;99.90;;;;;;5062508;28;20048;-39
2023/06/10 03:43:16;;;;;;;13.40;7.82;;;14.20;99.90;;;;;;5071796;28;20044;-39
2023/06/10 03:45:42;;;;;;;11.32;7.95;;;14.20;99.90;;;;;;5073717;28;20043;-39
2023/06/10 03:48:08;;;;;;;11.98;8.32;;;14.50;99.90;;;;;;5071702;28;20056;-40
2023/06/10 03:50:34;;;;;;;11.75;8.27;;;15.20;99.90;;;;;;5073582;28;20227;-39
2023/06/10 03:53:00;;;;;;;13.68;7.28;;;16.10;99.90;;;;;;5071930;28;20042;-39
2023/06/10 03:55:26;;;;;;;11.00;7.82;;;17.20;99.90;;;;;;5072802;28;20398;-40
2023/06/10 03:57:52;;;;;;;14.07;7.78;;;18.10;99.90;;;;;;5072953;28;20146;-40
2023/06/10 04:00:18;;;;;;;11.68;6.82;;;19.00;99.90;;;;;;5071282;28;20054;-41
2023/06/10 04:02:49;;;;;;;11.82;7.55;;;19.60;99.90;;;;;;5070187;28;20091;-41
2023/06/10 04:05:21;;;;;;;11.55;7.30;;;20.10;99.90;;;;;;5073318;28;20074;-42
2023/06/10 04:07:48;;;;;;;9.90;6.50;;;20.80;99.90;;;;;;5072543;28;20529;-41
2023/06/10 04:10:14;;;;;;;9.95;6.97;;;21.40;99.90;;;;;;5074094;28;20155;-42
2023/06/10 04:12:41;;;;;;;11.30;6.93;;;22.00;99.90;;;;;;5074442;28;20052;-41
2023/06/10 04:15:07;;;;;;;11.48;7.32;;;22.30;99.90;;;;;;5073158;28;20134;-41
2023/06/10 04:17:32;;;;;;;9.95;6.55;;;22.80;99.90;;;;;;5073170;28;20639;-40
2023/06/10 04:19:58;;;;;;;11.50;6.47;;;23.30;99.90;;;;;;5072805;28;20036;-41
2023/06/10 04:22:25;;;;;;;10.95;6.93;;;23.70;99.90;;;;;;5072453;28;20108;-40
2023/06/10 04:24:51;;;;;;;10.38;6.68;;;24.20;99.90;;;;;;5073178;28;20412;-41
2023/06/10 04:27:16;;;;;;;10.73;6.57;;;24.50;99.90;;;;;;5072231;28;20044;-40
2023/06/10 04:29:42;;;;;;;9.57;5.90;;;24.70;99.70;;;;;;5075055;28;20044;-43
2023/06/10 04:32:08;;;;;;;8.05;5.75;;;25.20;99.30;;;;;;5073649;28;20416;-40
2023/06/10 04:34:34;;;;;;;10.93;6.65;;;25.80;99.10;;;;;;5074075;28;20048;-42
2023/06/10 04:37:00;;;;;;;9.32;6.22;;;26.50;98.30;;;;;;5073409;28;20044;-43
2023/06/10 04:39:25;;;;;;;10.95;6.50;;;26.70;96.90;;;;;;5097270;27;20063;-42
2023/06/10 04:41:51;;;;;;;8.23;5.78;;;27.00;96.90;;;;;;5072983;28;20581;-42
2023/06/10 04:44:18;;;;;;;10.90;6.25;;;27.20;96.50;;;;;;5071693;28;20052;-44
2023/06/10 04:46:44;;;;;;;9.43;6.20;;;27.80;96.00;;;;;;5098294;27;20056;-44
2023/06/10 04:49:10;;;;;;;8.45;5.85;;;28.00;95.50;;;;;;5068713;28;20044;-41
2023/06/10 04:51:35;;;;;;;6.80;5.38;;;28.50;95.10;;;;;;5073117;28;20047;-43
2023/06/10 04:54:04;;;;;;;9.25;6.25;;;28.40;94.20;;;;;;5073714;28;20127;-41
2023/06/10 04:56:30;;;;;;;8.95;6.13;;;28.50;93.90;;;;;;5073250;28;20048;-41
2023/06/10 04:58:57;;;;;;;7.70;6.13;;;28.60;93.80;;;;;;5072304;28;20044;-43
2023/06/10 05:01:23;;;;;;;10.75;6.40;;;28.80;93.40;;;;;;5073472;28;20048;-41
2023/06/10 05:03:49;;;;;;;10.15;6.78;;;28.90;93.40;;;;;;5073293;28;20532;-41
2023/06/10 05:06:14;;;;;;;10.18;7.13;;;28.80;93.20;;;;;;5074545;28;20390;-41
2023/06/10 05:08:40;;;;;;;10.43;5.97;;;28.80;92.80;;;;;;5073264;28;20059;-42
2023/06/10 05:11:06;;;;;;;8.52;5.80;;;28.90;93.20;;;;;;5073211;28;20477;-41
2023/06/10 05:13:32;;;;;;;9.88;6.07;;;29.20;92.90;;;;;;5072417;28;20051;-41
2023/06/10 05:15:58;;;;;;;10.02;6.32;;;29.70;92.70;;;;;;5073299;28;20383;-41
2023/06/10 05:18:24;;;;;;;11.32;6.30;;;29.70;92.40;;;;;;5072513;28;20039;-43
2023/06/10 05:20:50;;;;;;;9.60;5.88;;;30.10;92.00;;;;;;5072750;28;20040;-45
2023/06/10 05:23:15;;;;;;;10.48;7.40;;;30.00;91.70;;;;;;5073683;28;20052;-42
2023/06/10 05:25:42;;;;;;;7.68;6.25;;;30.20;91.70;;;;;;5073465;28;20083;-40
2023/06/10 05:28:09;;;;;;;9.65;6.35;;;30.50;91.20;;;;;;5072548;28;20048;-43
2023/06/10 05:30:36;;;;;;;10.60;5.78;;;30.30;91.10;;;;;;5072526;28;20093;-44
2023/06/10 05:33:01;;;;;;;7.63;6.68;;;30.00;91.10;;;;;;5073590;28;20496;-41
2023/06/10 05:35:27;;;;;;;7.95;6.00;;;29.80;90.70;;;;;;5074013;28;20051;-41
2023/06/10 05:37:53;;;;;;;10.43;6.38;;;29.90;91.40;;;;;;5061700;28;20638;-41
2023/06/10 05:40:18;;;;;;;11.30;6.30;;;29.60;91.50;;;;;;5058314;28;20048;-42
2023/06/10 05:42:44;;;;;;;10.65;6.28;;;29.60;91.10;;;;;;5067864;28;20603;-42
2023/06/10 05:45:10;;;;;;;8.88;6.25;;;29.50;91.70;;;;;;5072264;28;20087;-42
2023/06/10 05:47:36;;;;;;;8.77;5.95;;;29.40;91.50;;;;;;5074520;28;20325;-40
2023/06/10 05:50:02;;;;;;;7.20;5.60;;;29.20;91.30;;;;;;5074715;28;20056;-40
2023/06/10 05:52:28;;;;;;;9.43;5.90;;;29.10;91.50;;;;;;5076792;28;20528;-39
2023/06/10 05:54:54;;;;;;;11.55;6.45;;;28.70;92.00;;;;;;5076527;28;20127;-38
2023/06/10 05:57:20;;;;;;;12.10;6.38;;;29.00;91.60;;;;;;5073801;28;20392;-39
2023/06/10 05:59:46;;;;;;;10.07;6.32;;;28.90;91.40;;;;;;5075612;28;20044;-41
2023/06/10 06:02:11;;;;;;;12.95;6.40;;;28.70;91.70;;;;;;5076807;28;20399;-38
2023/06/10 06:04:37;;;;;;;8.30;6.75;;;28.50;92.00;;;;;;5076167;28;20051;-39
2023/06/10 06:07:03;;;;;;;10.70;6.22;;;28.60;92.00;;;;;;5073863;28;20245;-42
2023/06/10 06:09:29;;;;;;;10.23;6.60;;;28.50;92.20;;;;;;5076423;28;20118;-40
2023/06/10 06:11:54;;;;;;;7.45;5.97;;;28.90;92.20;;;;;;5075037;28;20310;-40
2023/06/10 06:14:20;;;;;;;11.00;5.70;;;28.90;91.90;;;;;;5076667;28;20052;-39
2023/06/10 06:16:46;;;;;;;9.35;5.97;;;29.00;91.90;;;;;;5076000;28;20464;-39
2023/06/10 06:19:12;;;;;;;10.38;6.18;;;28.90;91.80;;;;;;5077569;28;20120;-39
2023/06/10 06:21:38;;;;;;;8.70;6.38;;;29.00;92.10;;;;;;5075271;28;20618;-41
2023/06/10 06:24:03;;;;;;;9.60;5.70;;;29.20;91.50;;;;;;5076327;28;20070;-40
2023/06/10 06:26:29;;;;;;;12.82;7.15;;;29.20;91.60;;;;;;5075494;28;20040;-40
2023/06/10 06:28:55;;;;;;;9.75;7.05;;;29.30;91.60;;;;;;5075151;28;20084;-41
2023/06/10 06:31:20;;;;;;;13.07;5.75;;;29.40;91.50;;;;;;5075570;28;20044;-39
2023/06/10 06:33:46;;;;;;;9.57;7.03;;;29.90;91.70;;;;;;5075568;28;20044;-40
2023/06/10 06:36:11;;;;;;;11.68;6.43;;;30.60;91.60;;;;;;5073991;28;20076;-39
2023/06/10 06:38:37;;;;;;;9.10;6.57;;;31.20;91.00;;;;;;5062002;28;20091;-41
2023/06/10 06:41:05;;;;;;;9.70;6.07;;;31.90;90.60;;;;;;5069071;28;20804;-40
2023/06/10 06:43:31;;;;;;;10.20;6.32;;;32.60;90.00;;;;;;5073529;28;20105;-40
2023/06/10 06:45:57;;;;;;;9.30;5.60;;;32.40;89.50;;;;;;5075105;28;20079;-43
2023/06/10 06:48:23;;;;;;;9.52;6.65;;;32.40;87.30;;;;;;5075112;28;20141;-39
2023/06/10 06:50:49;;;;;;;11.73;6.13;;;32.00;88.40;;;;;;5074356;28;20043;-40
2023/06/10 06:53:15;;;;;;;10.77;6.93;;;31.80;88.10;;;;;;5076083;28;20460;-41
2023/06/10 06:55:40;;;;;;;12.10;6.32;;;31.80;88.90;;;;;;5074762;28;20491;-40
2023/06/10 06:58:06;;;;;;;8.27;5.80;;;32.10;89.10;;;;;;5073336;28;20051;-42
2023/06/10 07:00:32;;;;;;;10.02;5.93;;;32.20;88.50;;;;;;5073975;28;20387;-41
2023/06/10 07:02:58;;;;;;;10.20;6.28;;;31.70;86.50;;;;;;5075254;28;20082;-43
2023/06/10 07:05:27;;;;;;;14.57;7.03;;;31.60;87.40;;;;;;5075848;28;20067;-42
2023/06/10 07:07:56;;;;;;;10.95;5.90;;;31.30;88.20;;;;;;5074408;28;20127;-42
2023/06/10 07:10:25;;;;;;;7.95;5.80;;;31.30;88.30;;;;;;5069286;28;20135;-41
2023/06/10 07:12:51;;;;;;;7.32;5.72;;;31.30;87.50;;;;;;5073896;28;20051;-41
2023/06/10 07:15:17;;;;;;;8.43;6.85;;;31.40;87.90;;;;;;5062243;28;20053;-43
2023/06/10 07:17:43;;;;;;;10.65;6.43;;;30.90;87.90;;;;;;5056920;28;20059;-41
2023/06/10 07:20:09;;;;;;;9.55;6.00;;;30.90;89.10;;;;;;5090411;27;20472;-41
2023/06/10 07:22:35;;;;;;;8.23;6.05;;;30.80;88.70;;;;;;5053986;28;20512;-44
2023/06/10 07:25:01;;;;;;;8.90;6.35;;;30.30;89.60;;;;;;5058425;28;20040;-43
2023/06/10 07:27:26;;;;;;;9.18;6.35;;;29.70;90.60;;;;;;5055362;28;20094;-46
2023/06/10 07:29:52;;;;;;;11.48;6.35;;;29.10;91.40;;;;;;5055641;28;20048;-40
2023/06/10 07:32:20;;;;;;;8.48;6.22;;;28.60;91.40;;;;;;5052743;28;20098;-43
2023/06/10 07:34:46;;;;;;;9.55;6.45;;;27.90;91.30;;;;;;5069434;28;20395;-42
2023/06/10 07:37:11;;;;;;;8.85;6.25;;;27.30;91.90;;;;;;5063833;28;20045;-42
2023/06/10 07:39:37;;;;;;;8.82;6.15;;;27.20;92.70;;;;;;5060154;28;20520;-40
2023/06/10 07:42:03;;;;;;;11.27;6.55;;;27.20;93.60;;;;;;5055947;28;20070;-42
2023/06/10 07:44:29;;;;;;;12.02;6.72;;;27.20;93.70;;;;;;5070783;28;20525;-41
2023/06/10 07:46:54;;;;;;;10.48;6.68;;;27.30;93.50;;;;;;5066680;28;20066;-40
2023/06/10 07:49:20;;;;;;;9.45;6.18;;;27.40;93.80;;;;;;5071819;28;20074;-42
2023/06/10 07:51:46;;;;;;;11.35;5.70;;;27.20;93.50;;;;;;5068599;28;20040;-42
2023/06/10 07:54:12;;;;;;;7.53;5.65;;;27.30;93.50;;;;;;5071621;28;20482;-41
2023/06/10 07:56:38;;;;;;;14.02;6.03;;;27.10;93.50;;;;;;5056955;28;20387;-41
2023/06/10 07:59:03;;;;;;;7.50;6.03;;;26.90;93.30;;;;;;5072890;28;20043;-43
2023/06/10 08:01:30;;;;;;;10.20;5.82;;;26.80;94.20;;;;;;5072606;28;20048;-41
2023/06/10 08:03:55;;;;;;;8.77;6.35;;;26.70;94.70;;;;;;5067159;28;20097;-41
2023/06/10 08:06:21;;;;;;;10.00;6.20;;;26.50;94.50;;;;;;5066106;28;20044;-40
2023/06/10 08:08:47;;;;;;;8.07;6.72;;;26.30;95.10;;;;;;5082844;28;20048;-44
2023/06/10 08:11:13;;;;;;;10.25;5.53;;;26.30;94.30;;;;;;5064296;28;20040;-40
2023/06/10 08:13:39;;;;;;;7.60;5.50;;;26.10;93.80;;;;;;5071143;28;20041;-40
2023/06/10 08:16:05;;;;;;;10.50;5.82;;;26.20;94.60;;;;;;5058594;28;20040;-43
2023/06/10 08:18:31;;;;;;;11.48;6.03;;;26.10;95.40;;;;;;5065075;28;20048;-40
2023/06/10 08:20:57;;;;;;;12.10;6.53;;;26.20;94.50;;;;;;5063101;28;20871;-41
2023/06/10 08:23:23;;;;;;;9.80;6.43;;;26.10;95.40;;;;;;5058047;28;20066;-40
2023/06/10 08:25:48;;;;;;;10.13;6.22;;;26.10;95.00;;;;;;5062017;28;20060;-43
2023/06/10 08:28:14;;;;;;;9.07;5.75;;;26.00;94.50;;;;;;5057189;28;20052;-41
2023/06/10 08:30:40;;;;;;;8.88;5.95;;;25.90;94.10;;;;;;5063267;28;20507;-42
2023/06/10 08:33:05;;;;;;;11.18;6.30;;;25.80;94.70;;;;;;5070094;28;20093;-40
2023/06/10 08:35:31;;;;;;;8.18;5.55;;;25.70;94.20;;;;;;5072773;28;20059;-39
2023/06/10 08:37:57;;;;;;;9.02;5.97;;;25.70;94.40;;;;;;5060660;28;20104;-46
2023/06/10 08:40:22;;;;;;;8.27;5.72;;;25.80;94.70;;;;;;5066120;28;20083;-45
2023/06/10 08:42:56;;;;;;;10.45;6.20;;;25.70;94.40;;;;;;5101863;27;20087;-40
2023/06/10 08:45:24;;;;;;;9.88;5.70;;;25.60;94.40;;;;;;5072624;28;20090;-41
2023/06/10 08:47:53;;;;;;;8.10;5.22;;;25.70;95.00;;;;;;5071634;28;20321;-40
2023/06/10 08:50:19;;;;;;;9.68;5.97;;;25.70;94.10;;;;;;5062887;28;20503;-42
2023/06/10 08:52:49;;;;;;;11.05;6.05;;;25.60;94.40;;;;;;5073332;28;20089;-40
2023/06/10 08:55:19;;;;;;;8.50;5.57;;;25.60;94.30;;;;;;5071274;28;20218;-41
2023/06/10 08:57:47;;;;;;;8.93;5.07;;;25.60;94.90;;;;;;5073542;28;20649;-42
2023/06/10 09:00:13;;;;;;;6.97;5.38;;;25.70;94.70;;;;;;5071115;28;20044;-40
2023/06/10 09:02:39;;;;;;;6.95;5.53;;;25.70;94.10;;;;;;5073642;28;20573;-41
2023/06/10 09:05:06;;;;;;;8.18;5.63;;;25.70;94.40;;;;;;5072732;28;20047;-42
2023/06/10 09:07:34;;;;;;;7.78;5.53;;;25.60;95.00;;;;;;5072448;28;20535;-40
2023/06/10 09:10:03;;;;;;;9.55;5.68;;;25.80;94.70;;;;;;5071837;28;20422;-41
2023/06/10 09:12:29;;;;;;;9.20;5.45;;;25.80;94.60;;;;;;5072953;28;20059;-41
2023/06/10 09:14:55;;;;;;;8.57;6.07;;;25.80;94.70;;;;;;5070819;28;20493;-39
2023/06/10 09:17:21;;;;;;;7.93;5.80;;;26.00;94.90;;;;;;5072343;28;20460;-41
2023/06/10 09:19:48;;;;;;;9.25;6.30;;;26.00;94.70;;;;;;5071265;28;20044;-42
2023/06/10 09:22:14;;;;;;;8.90;5.32;;;26.00;94.90;;;;;;5073765;28;20424;-41
2023/06/10 09:24:41;;;;;;;6.75;5.45;;;26.20;95.10;;;;;;5077576;28;20526;-39
2023/06/10 09:27:08;;;;;;;8.98;5.53;;;26.10;94.50;;;;;;5076481;28;20050;-43
2023/06/10 09:29:51;;;;;;;8.57;5.47;;;26.20;94.80;;;;;;5076098;28;20044;-41
2023/06/10 09:32:18;;;;;;;10.02;5.93;;;26.30;94.30;;;;;;5076727;28;20530;-41
2023/06/10 09:34:44;;;;;;;6.70;5.22;;;26.20;92.40;;;;;;5076283;28;20563;-43
2023/06/10 09:37:12;;;;;;;8.30;5.55;;;26.20;92.70;;;;;;5067186;28;20052;-40
2023/06/10 09:39:38;;;;;;;8.45;5.15;;;26.30;92.70;;;;;;5067646;28;20416;-41
2023/06/10 09:42:18;;;;;;;5.82;4.55;;;26.30;93.40;;;;;;5074629;28;20100;-40
2023/06/10 09:44:52;;;;;;;13.73;5.32;;;26.30;92.80;;;;;;5075536;28;20071;-42
2023/06/10 09:47:22;;;;;;;8.80;5.57;;;26.20;93.20;;;;;;5074969;28;20499;-43
2023/06/10 09:49:49;;;;;;;9.15;5.00;;;26.30;92.20;;;;;;5057754;28;20059;-42
2023/06/10 09:52:21;;;;;;;8.63;5.32;;;26.10;91.60;;;;;;5058506;28;20382;-41
2023/06/10 09:54:47;;;;;;;;;;;26.00;91.30;;;;;;5065678;28;20060;-41
2023/06/10 09:57:14;;;;;;;8.07;4.85;;;26.00;91.60;;;;;;5070181;28;20304;-43
2023/06/10 09:59:40;;;;;;;7.65;4.88;;;26.00;91.50;;;;;;5073680;28;20048;-40
2023/06/10 10:02:06;;;;;;;7.32;5.10;;;26.10;91.90;;;;;;5071571;28;20728;-41
2023/06/10 10:04:35;;;;;;;6.40;5.10;;;26.00;91.30;;;;;;5074721;28;20112;-41
2023/06/10 10:07:01;;;;;;;8.68;4.70;;;26.00;91.10;;;;;;5075359;28;20052;-41
2023/06/10 10:09:26;;;;;;;7.82;4.57;;;25.90;90.80;;;;;;5075743;28;20204;-40
2023/06/10 10:11:55;;;;;;;10.25;5.63;;;25.80;90.20;;;;;;5075462;28;20055;-42
2023/06/10 10:14:21;;;;;;;7.25;4.75;;;25.70;91.40;;;;;;5076543;28;20128;-42
2023/06/10 10:16:49;;;;;;;8.90;4.50;;;25.80;91.00;;;;;;5075030;28;20507;-42
2023/06/10 10:19:20;;;;;;;7.32;5.25;;;25.90;90.30;;;;;;5076844;28;20054;-40
2023/06/10 10:22:03;;;;;;;9.07;4.57;;;25.90;90.40;;;;;;5072194;28;20473;-42
2023/06/10 10:24:41;;;;;;;6.40;4.95;;;26.00;87.30;;;;;;5075382;28;20209;-40
2023/06/10 10:27:13;;;;;;;7.55;4.35;;;26.20;89.30;;;;;;5057700;28;20475;-41
2023/06/10 10:29:40;;;;;;;8.38;4.68;;;26.30;89.30;;;;;;5066115;28;20143;-41
2023/06/10 10:32:08;;;;;;;5.70;4.43;;;26.30;89.90;;;;;;5068652;28;20048;-40
2023/06/10 10:34:53;;;;;;;5.68;4.55;;;26.40;88.40;;;;;;5068346;28;20075;-40
2023/06/10 10:37:21;;;;;;;9.68;4.35;;;26.40;88.80;;;;;;5057012;28;20410;-41
2023/06/10 10:39:47;;;;;;;5.43;4.68;;;26.50;88.60;;;;;;5067629;28;20040;-40
2023/06/10 10:42:14;;;;;;;9.88;4.70;;;26.60;87.90;;;;;;5074097;28;20043;-42
2023/06/10 10:44:40;;;;;;;5.93;4.07;;;26.70;89.70;;;;;;5070871;28;20037;-40
2023/06/10 10:47:09;;;;;;;8.52;4.47;;;26.90;90.00;;;;;;5066493;28;20117;-41
2023/06/10 10:49:36;;;;;;;7.20;4.25;;;26.90;87.50;;;;;;5074772;28;20154;-40
2023/06/10 10:52:05;;;;;;;6.80;4.03;;;26.90;86.60;;;;;;5074763;28;20543;-40
2023/06/10 10:54:35;;;;;;;6.40;4.20;;;27.00;89.30;;;;;;5074516;28;20086;-42
2023/06/10 10:57:20;;;;;;;6.50;3.90;;;26.90;84.20;;;;;;5069615;28;20044;-40
2023/06/10 10:59:55;;;;;;;4.25;3.55;;;26.90;84.50;;;;;;5062240;28;20848;-42
2023/06/10 11:02:46;;;;;;;6.57;4.70;;;26.80;84.70;;;;;;5073345;28;20508;-40
2023/06/10 11:05:15;;;;;;;6.53;4.20;;;26.70;84.60;;;;;;5075928;28;20044;-41
2023/06/10 11:07:51;;;;;;;7.10;4.32;;;26.60;83.90;;;;;;5075134;28;20398;-40
2023/06/10 11:10:17;;;;;;;4.75;3.60;;;26.70;84.90;;;;;;5074237;28;20084;-41
2023/06/10 11:12:46;;;;;;;8.05;4.03;;;26.90;83.90;;;;;;5075613;28;20229;-41
2023/06/10 11:15:26;;;;;;;5.72;3.60;;;27.00;84.00;;;;;;5074808;28;20052;-43
2023/06/10 11:18:15;;;;;;;6.55;3.80;;;27.00;81.10;;;;;;5073553;28;20086;-42
2023/06/10 11:20:50;;;;;;;5.38;3.60;;;26.80;82.90;;;;;;4999708;28;20095;-40
2023/06/10 11:23:27;;;;;;;5.90;3.60;;;26.80;82.60;;;;;;5011500;28;20053;-41
2023/06/10 11:26:11;;;;;;;5.35;3.45;;;26.90;82.90;;;;;;5011116;28;20572;-41
2023/06/10 11:28:38;;;;;;;6.93;4.93;;;27.00;83.70;;;;;;5002816;28;20059;-41
2023/06/10 11:31:04;;;;;;;5.72;3.58;;;27.10;85.10;;;;;;5007078;28;20697;-42
2023/06/10 11:33:30;;;;;;;4.20;3.80;;;27.10;82.70;;;;;;4993848;28;20136;-41
2023/06/10 11:35:56;;;;;;;7.50;3.50;;;27.10;82.80;;;;;;5009840;28;20216;-40
2023/06/10 11:38:22;;;;;;;6.43;3.55;;;27.20;81.40;;;;;;5009350;28;20053;-40
2023/06/10 11:40:51;;;;;;;6.38;3.67;;;27.30;80.70;;;;;;5009370;28;20049;-41
2023/06/10 11:43:18;;;;;;;6.20;3.75;;;27.40;83.50;;;;;;5010350;28;20131;-41
2023/06/10 11:45:44;;;;;;;6.57;3.97;;;27.50;82.90;;;;;;5010189;28;20053;-40
2023/06/10 11:48:10;;;;;;;6.25;3.70;;;27.50;81.20;;;;;;5010106;28;20465;-41
2023/06/10 11:50:36;;;;;;;5.00;3.58;;;27.30;79.40;;;;;;5009234;28;20151;-41
2023/06/10 11:53:03;;;;;;;5.97;3.80;;;27.40;82.30;;;;;;5006396;28;20053;-42
2023/06/10 11:55:43;;;;;;;6.57;3.60;;;27.50;84.50;;;;;;5010500;28;20064;-40
2023/06/10 11:58:21;;;;;;;6.28;3.92;;;27.50;79.90;;;;;;5045274;28;20710;-40
2023/06/10 12:00:50;;;;;;;5.47;3.63;;;27.50;80.10;;;;;;5073411;28;20125;-40
2023/06/10 12:03:17;;;;;;;6.28;4.22;;;27.50;79.40;;;;;;5071351;28;20101;-41
2023/06/10 12:06:07;;;;;;;7.00;4.05;;;27.50;81.40;;;;;;5072064;28;20060;-40
2023/06/10 12:08:40;;;;;;;5.25;3.85;;;27.50;80.00;;;;;;5071998;28;20048;-41
2023/06/10 12:11:06;;;;;;;8.48;3.40;;;27.50;81.80;;;;;;5072404;28;20052;-40
2023/06/10 12:13:32;;;;;;;6.53;3.78;;;27.50;81.60;;;;;;5067040;28;20054;-41
2023/06/10 12:16:08;;;;;;;6.88;3.22;;;27.40;79.70;;;;;;5070353;28;20044;-43
2023/06/10 12:18:33;;;;;;;6.65;3.78;;;27.40;79.50;;;;;;5071675;28;20044;-40
2023/06/10 12:21:00;;;;;;;5.28;3.28;;;27.40;79.10;;;;;;5068746;28;20101;-42
2023/06/10 12:23:25;;;;;;;4.85;3.25;;;27.40;78.70;;;;;;5066037;28;20500;-43
2023/06/10 12:25:53;;;;;;;6.88;3.47;;;27.40;77.60;;;;;;5063144;28;20043;-40
2023/06/10 12:28:24;;;;;;;7.47;3.97;;;27.40;78.20;;;;;;5069071;28;20059;-41
2023/06/10 12:30:51;;;;;;;5.63;3.15;;;27.50;79.30;;;;;;5052273;28;20512;-40
2023/06/10 12:33:20;;;;;;;6.85;3.70;;;27.60;79.60;;;;;;5060249;28;20048;-41
2023/06/10 12:35:53;;;;;;;6.88;3.50;;;27.60;77.80;;;;;;5073206;28;20105;-43
2023/06/10 12:38:24;;;;;;;6.00;3.70;;;27.60;78.50;;;;;;5060508;28;20271;-42
2023/06/10 12:40:50;;;;;;;6.47;3.35;;;27.70;79.90;;;;;;5066619;28;20052;-40
2023/06/10 12:43:20;;;;;;;5.25;3.13;;;27.70;77.00;;;;;;5071818;28;20052;-42
2023/06/10 12:45:46;;;;;;;3.63;3.00;;;27.60;77.30;;;;;;5099770;28;20166;-42